createdAt,value
2023-02-14T00:00:48.535Z,4.80
2023-02-14T00:03:15.269Z,4.80
2023-02-14T00:05:41.468Z,4.80
2023-02-14T00:08:08.587Z,4.80
2023-02-14T00:10:35.275Z,4.80
2023-02-14T00:13:01.574Z,4.70
2023-02-14T00:15:27.723Z,4.70
2023-02-14T00:17:55.633Z,4.70
2023-02-14T00:20:23.070Z,4.70
2023-02-14T00:22:49.917Z,4.70
2023-02-14T00:25:16.221Z,4.70
2023-02-14T00:27:42.457Z,4.70
2023-02-14T00:30:09.594Z,4.60
2023-02-14T00:32:40.189Z,4.60
2023-02-14T00:35:07.384Z,4.70
2023-02-14T00:37:34.688Z,4.60
2023-02-14T00:40:00.905Z,4.60
2023-02-14T00:42:27.393Z,4.60
2023-02-14T00:44:53.792Z,4.60
2023-02-14T00:47:20.258Z,4.60
2023-02-14T00:49:46.364Z,4.70
2023-02-14T00:52:13.127Z,4.60
2023-02-14T00:54:39.862Z,4.60
2023-02-14T00:57:06.026Z,4.60
2023-02-14T00:59:32.170Z,4.60
2023-02-14T01:01:58.402Z,4.60
2023-02-14T01:04:25.557Z,4.60
2023-02-14T01:06:51.814Z,4.60
2023-02-14T01:09:18.963Z,4.60
2023-02-14T01:11:45.405Z,4.60
2023-02-14T01:14:13.797Z,4.60
2023-02-14T01:16:40.455Z,4.60
2023-02-14T01:19:08.643Z,4.60
2023-02-14T01:21:35.223Z,4.60
2023-02-14T01:24:04.288Z,4.60
2023-02-14T01:26:30.555Z,4.50
2023-02-14T01:28:56.746Z,4.50
2023-02-14T01:31:29.632Z,4.60
2023-02-14T01:33:56.757Z,4.50
2023-02-14T01:36:29.233Z,4.50
2023-02-14T01:38:58.601Z,4.60
2023-02-14T01:41:26.809Z,4.50
2023-02-14T01:45:19.529Z,4.50
2023-02-14T01:47:47.176Z,4.50
2023-02-14T01:50:19.237Z,4.50
2023-02-14T01:54:07.224Z,4.50
2023-02-14T01:56:42.056Z,4.50
2023-02-14T01:59:10.821Z,4.50
2023-02-14T02:01:38.405Z,4.40
2023-02-14T02:04:13.463Z,4.50
2023-02-14T02:06:48.203Z,4.40
2023-02-14T02:09:42.301Z,4.40
2023-02-14T02:12:09.541Z,4.40
2023-02-14T02:14:35.677Z,4.40
2023-02-14T02:24:39.072Z,4.40
2023-02-14T02:29:07.308Z,4.40
2023-02-14T02:31:57.511Z,4.40
2023-02-14T02:34:49.912Z,4.40
2023-02-14T02:38:07.968Z,4.40
2023-02-14T02:41:11.694Z,4.40
2023-02-14T02:47:31.407Z,4.40
2023-02-14T02:50:48.358Z,4.40
2023-02-14T02:53:40.466Z,4.30
2023-02-14T02:56:46.365Z,4.40
2023-02-14T02:59:45.698Z,4.40
2023-02-14T03:04:29.872Z,4.30
2023-02-14T03:06:56.198Z,4.30
2023-02-14T03:10:53.267Z,4.30
2023-02-14T03:13:47.802Z,4.30
2023-02-14T03:16:35.283Z,4.30
2023-02-14T03:19:52.786Z,4.30
2023-02-14T03:25:53.491Z,4.30
2023-02-14T03:30:59.353Z,4.30
2023-02-14T03:33:55.844Z,4.20
2023-02-14T03:36:25.378Z,4.30
2023-02-14T03:39:36.705Z,4.20
2023-02-14T03:42:15.555Z,4.20
2023-02-14T03:44:43.120Z,4.30
2023-02-14T03:47:15.082Z,4.20
2023-02-14T03:49:55.574Z,4.30
2023-02-14T03:52:23.621Z,4.30
2023-02-14T03:54:51.580Z,4.30
2023-02-14T03:57:26.621Z,4.30
2023-02-14T03:59:53.147Z,4.30
2023-02-14T04:02:38.810Z,4.30
2023-02-14T04:05:11.791Z,4.30
2023-02-14T04:07:52.269Z,4.30
2023-02-14T04:10:20.246Z,4.30
2023-02-14T04:12:47.787Z,4.30
2023-02-14T04:15:14.132Z,4.30
2023-02-14T04:19:32.865Z,4.20
2023-02-14T04:22:00.879Z,4.30
2023-02-14T04:24:27.643Z,4.30
2023-02-14T04:26:54.565Z,4.30
2023-02-14T04:29:21.395Z,4.30
2023-02-14T04:31:47.766Z,4.20
2023-02-14T04:34:15.467Z,4.20
2023-02-14T04:36:41.813Z,4.20
2023-02-14T04:39:07.983Z,4.20
2023-02-14T04:41:34.174Z,4.20
2023-02-14T04:44:01.131Z,4.20
2023-02-14T04:46:29.023Z,4.20
2023-02-14T04:48:56.278Z,4.20
2023-02-14T04:51:22.657Z,4.20
2023-02-14T04:53:49.394Z,4.20
2023-02-14T04:56:16.956Z,4.20
2023-02-14T04:58:43.112Z,4.20
2023-02-14T05:01:09.669Z,4.30
2023-02-14T05:03:38.179Z,4.20
2023-02-14T05:06:06.287Z,4.20
2023-02-14T05:08:35.146Z,4.20
2023-02-14T05:11:01.646Z,4.20
2023-02-14T05:13:28.008Z,4.20
2023-02-14T05:15:55.148Z,2.10
2023-02-14T05:18:21.854Z,4.20
2023-02-14T05:20:52.679Z,4.20
2023-02-14T05:23:19.866Z,4.20
2023-02-14T05:25:48.405Z,4.20
2023-02-14T05:28:14.630Z,4.20
2023-02-14T05:30:42.097Z,4.10
2023-02-14T05:33:09.128Z,4.20
2023-02-14T05:35:35.695Z,4.20
2023-02-14T05:38:01.848Z,4.10
2023-02-14T05:40:29.132Z,4.10
2023-02-14T05:42:56.368Z,4.20
2023-02-14T05:45:23.505Z,4.10
2023-02-14T05:47:49.669Z,4.10
2023-02-14T05:50:17.440Z,4.20
2023-02-14T05:52:45.272Z,6.10
2023-02-14T05:55:12.012Z,4.20
2023-02-14T05:57:38.937Z,4.10
2023-02-14T06:00:07.234Z,4.10
2023-02-14T06:02:33.458Z,4.10
2023-02-14T06:05:00.199Z,4.10
2023-02-14T06:07:26.416Z,4.10
2023-02-14T06:09:52.659Z,4.10
2023-02-14T06:12:18.828Z,4.20
2023-02-14T06:14:45.076Z,4.20
2023-02-14T06:17:11.379Z,4.20
2023-02-14T06:19:39.208Z,4.10
2023-02-14T06:22:05.355Z,4.10
2023-02-14T06:24:32.121Z,4.20
2023-02-14T06:26:59.820Z,4.20
2023-02-14T06:29:26.121Z,4.10
2023-02-14T06:31:52.809Z,4.10
2023-02-14T06:34:19.364Z,4.20
2023-02-14T06:36:45.970Z,4.20
2023-02-14T06:39:12.335Z,4.20
2023-02-14T06:41:39.059Z,4.20
2023-02-14T06:44:05.832Z,4.20
2023-02-14T06:46:32.189Z,4.20
2023-02-14T06:48:58.543Z,4.30
2023-02-14T06:51:24.776Z,4.30
2023-02-14T06:53:51.418Z,4.30
2023-02-14T06:56:18.675Z,4.30
2023-02-14T06:58:44.981Z,4.30
2023-02-14T07:01:11.375Z,4.30
2023-02-14T07:03:37.806Z,4.30
2023-02-14T07:06:05.180Z,4.40
2023-02-14T07:08:32.462Z,4.40
2023-02-14T07:11:05.550Z,4.40
2023-02-14T07:13:32.082Z,4.40
2023-02-14T07:15:58.605Z,4.50
2023-02-14T07:18:24.924Z,4.50
2023-02-14T07:20:51.885Z,4.50
2023-02-14T07:23:19.069Z,4.50
2023-02-14T07:25:46.808Z,4.60
2023-02-14T07:28:13.570Z,4.60
2023-02-14T07:30:41.407Z,4.60
2023-02-14T07:33:08.003Z,4.60
2023-02-14T07:35:34.805Z,4.70
2023-02-14T07:38:00.984Z,4.20
2023-02-14T07:40:29.821Z,4.80
2023-02-14T07:42:56.967Z,4.80
2023-02-14T07:45:23.583Z,4.80
2023-02-14T07:47:51.398Z,4.80
2023-02-14T07:50:19.611Z,4.90
2023-02-14T07:52:45.922Z,4.90
2023-02-14T07:55:12.409Z,5.00
2023-02-14T07:57:38.778Z,5.00
2023-02-14T08:00:06.092Z,5.10
2023-02-14T08:02:33.231Z,5.10
2023-02-14T08:04:59.769Z,5.20
2023-02-14T08:07:26.289Z,5.20
2023-02-14T08:09:52.675Z,5.20
2023-02-14T08:12:37.786Z,5.20
2023-02-14T08:15:23.171Z,5.30
2023-02-14T08:17:50.516Z,5.30
2023-02-14T08:20:17.171Z,5.40
2023-02-14T08:22:43.994Z,5.50
2023-02-14T08:25:10.844Z,5.50
2023-02-14T08:27:37.826Z,5.50
2023-02-14T08:30:04.629Z,5.50
2023-02-14T08:32:31.112Z,5.60
2023-02-14T08:34:57.996Z,5.60
2023-02-14T08:37:24.428Z,5.60
2023-02-14T08:39:50.691Z,5.70
2023-02-14T08:42:17.927Z,5.70
2023-02-14T08:44:44.440Z,5.80
2023-02-14T08:47:11.919Z,5.80
2023-02-14T08:49:38.950Z,5.90
2023-02-14T08:52:05.812Z,5.90
2023-02-14T08:54:32.659Z,5.90
2023-02-14T08:56:59.469Z,6.00
2023-02-14T08:59:26.190Z,6.00
2023-02-14T09:01:52.795Z,6.00
2023-02-14T09:04:19.431Z,6.00
2023-02-14T09:06:46.605Z,6.10
2023-02-14T09:09:13.678Z,6.10
2023-02-14T09:11:40.620Z,6.20
2023-02-14T09:14:07.984Z,6.20
2023-02-14T09:16:34.703Z,6.20
2023-02-14T09:19:01.274Z,6.20
2023-02-14T09:21:29.811Z,6.30
2023-02-14T09:23:57.679Z,6.40
2023-02-14T09:26:24.547Z,6.50
2023-02-14T09:28:51.403Z,6.50
2023-02-14T09:31:19.705Z,6.50
2023-02-14T09:33:46.600Z,6.50
2023-02-14T09:36:32.027Z,6.50
2023-02-14T09:38:58.523Z,6.60
2023-02-14T09:43:01.949Z,6.60
2023-02-14T09:45:29.135Z,6.60
2023-02-14T09:47:58.272Z,6.60
2023-02-14T09:51:29.900Z,6.70
2023-02-14T09:54:14.317Z,6.60
2023-02-14T09:56:53.720Z,6.70
2023-02-14T10:01:15.602Z,6.70
2023-02-14T10:04:17.234Z,6.80
2023-02-14T10:06:52.255Z,7.00
2023-02-14T10:09:43.683Z,7.00
2023-02-14T10:12:20.502Z,7.50
2023-02-14T10:14:49.288Z,6.90
2023-02-14T10:17:36.246Z,6.90
2023-02-14T10:20:06.435Z,7.00
2023-02-14T10:22:42.747Z,7.00
2023-02-14T10:25:22.637Z,6.90
2023-02-14T10:27:49.512Z,7.00
2023-02-14T10:30:18.043Z,7.00
2023-02-14T10:33:00.860Z,6.90
2023-02-14T10:35:45.067Z,7.00
2023-02-14T10:38:42.069Z,7.00
2023-02-14T10:41:20.282Z,7.10
2023-02-14T10:44:15.010Z,7.10
2023-02-14T10:51:42.024Z,7.10
2023-02-14T10:54:57.054Z,7.30
2023-02-14T10:57:38.048Z,7.40
2023-02-14T11:00:06.592Z,7.50
2023-02-14T11:02:39.453Z,7.60
2023-02-14T11:05:06.443Z,7.50
2023-02-14T11:07:32.935Z,7.50
2023-02-14T11:10:00.253Z,7.60
2023-02-14T11:12:37.762Z,7.60
2023-02-14T11:16:57.018Z,7.50
2023-02-14T11:19:37.217Z,7.10
2023-02-14T11:22:08.496Z,7.60
2023-02-14T11:24:36.806Z,7.60
2023-02-14T11:27:14.276Z,7.70
2023-02-14T11:29:47.370Z,7.80
2023-02-14T11:32:23.560Z,7.80
2023-02-14T11:35:08.077Z,7.80
2023-02-14T11:37:52.778Z,7.70
2023-02-14T11:40:38.821Z,7.80
2023-02-14T11:43:41.980Z,7.80
2023-02-14T11:46:36.046Z,7.80
2023-02-14T11:49:06.226Z,7.60
2023-02-14T11:51:42.759Z,7.60
2023-02-14T11:54:14.424Z,7.60
2023-02-14T11:57:34.263Z,7.10
2023-02-14T12:00:03.873Z,6.80
2023-02-14T12:02:46.776Z,6.90
2023-02-14T12:05:32.110Z,6.90
2023-02-14T12:08:05.304Z,7.20
2023-02-14T12:10:34.629Z,7.00
2023-02-14T12:13:24.298Z,7.00
2023-02-14T12:15:53.144Z,7.00
2023-02-14T12:20:16.498Z,7.20
2023-02-14T12:24:20.801Z,7.30
2023-02-14T12:27:00.368Z,7.60
2023-02-14T12:29:44.485Z,7.00
2023-02-14T12:32:29.858Z,7.20
2023-02-14T12:35:21.301Z,7.30
2023-02-14T12:39:48.932Z,7.30
2023-02-14T12:43:24.372Z,8.40
2023-02-14T12:46:48.384Z,7.40
2023-02-14T12:49:34.814Z,7.40
2023-02-14T12:52:22.429Z,7.60
2023-02-14T12:57:00.701Z,7.60
2023-02-14T12:59:57.077Z,7.60
2023-02-14T13:03:02.442Z,7.60
2023-02-14T13:09:08.805Z,7.60
2023-02-14T13:15:02.143Z,7.40
2023-02-14T13:21:02.218Z,7.40
2023-02-14T13:23:43.516Z,7.30
2023-02-14T13:26:12.269Z,7.40
2023-02-14T13:28:52.936Z,7.30
2023-02-14T13:31:19.504Z,7.30
2023-02-14T13:35:23.153Z,7.30
2023-02-14T13:37:53.323Z,7.20
2023-02-14T13:40:24.316Z,7.20
2023-02-14T13:42:55.763Z,7.20
2023-02-14T13:48:08.637Z,7.10
2023-02-14T13:51:22.788Z,7.80
2023-02-14T13:53:51.862Z,7.10
2023-02-14T13:56:41.122Z,7.10
2023-02-14T13:59:29.144Z,7.10
2023-02-14T14:02:04.561Z,7.10
2023-02-14T14:04:35.588Z,7.10
2023-02-14T14:07:23.758Z,7.10
2023-02-14T14:09:55.292Z,7.10
2023-02-14T14:12:56.208Z,7.00
2023-02-14T14:15:24.573Z,7.00
2023-02-14T14:18:30.042Z,6.90
2023-02-14T14:20:57.873Z,6.90
2023-02-14T14:23:36.419Z,6.80
2023-02-14T14:26:30.033Z,6.60
2023-02-14T14:28:56.462Z,6.40
2023-02-14T14:31:23.310Z,6.40
2023-02-14T14:33:58.360Z,6.40
2023-02-14T14:36:25.779Z,6.20
2023-02-14T14:38:54.733Z,6.00
2023-02-14T14:41:29.661Z,6.10
2023-02-14T14:43:59.707Z,6.10
2023-02-14T14:46:28.046Z,6.10
2023-02-14T14:48:56.317Z,6.10
2023-02-14T14:51:25.834Z,6.20
2023-02-14T14:54:17.725Z,6.30
2023-02-14T14:56:59.176Z,6.20
2023-02-14T14:59:33.954Z,6.30
2023-02-14T15:02:01.210Z,6.30
2023-02-14T15:04:31.089Z,6.20
2023-02-14T15:07:30.331Z,6.20
2023-02-14T15:09:58.061Z,6.20
2023-02-14T15:12:44.499Z,6.10
2023-02-14T15:15:16.072Z,6.10
2023-02-14T15:17:44.735Z,6.00
2023-02-14T15:20:20.904Z,6.00
2023-02-14T15:22:49.913Z,5.90
2023-02-14T15:25:26.497Z,5.90
2023-02-14T15:27:54.932Z,5.90
2023-02-14T15:30:30.003Z,5.80
2023-02-14T15:32:58.678Z,5.80
2023-02-14T15:35:28.647Z,5.70
2023-02-14T15:37:56.724Z,5.70
2023-02-14T15:40:25.811Z,7.80
2023-02-14T15:42:58.374Z,5.60
2023-02-14T15:45:31.219Z,5.50
2023-02-14T15:48:04.054Z,5.40
2023-02-14T15:50:32.674Z,5.40
2023-02-14T15:53:05.956Z,5.30
2023-02-14T15:55:32.414Z,5.30
2023-02-14T15:58:06.609Z,5.20
2023-02-14T16:00:33.335Z,5.20
2023-02-14T16:03:06.754Z,5.10
2023-02-14T16:05:33.776Z,5.10
2023-02-14T16:08:05.185Z,5.10
2023-02-14T16:10:38.944Z,5.00
2023-02-14T16:13:42.913Z,5.00
2023-02-14T16:16:11.482Z,5.00
2023-02-14T16:18:42.872Z,4.90
2023-02-14T16:21:31.629Z,4.90
2023-02-14T16:24:11.107Z,4.90
2023-02-14T16:26:39.967Z,4.80
2023-02-14T16:29:10.065Z,4.80
2023-02-14T16:31:51.919Z,4.80
2023-02-14T16:34:28.741Z,4.80
2023-02-14T16:36:56.613Z,4.70
2023-02-14T16:39:24.320Z,4.70
2023-02-14T16:41:52.934Z,4.70
2023-02-14T16:44:19.621Z,4.70
2023-02-14T16:46:46.164Z,4.60
2023-02-14T16:49:14.586Z,4.60
2023-02-14T16:51:43.160Z,4.60
2023-02-14T16:54:18.371Z,4.60
2023-02-14T16:56:50.769Z,4.50
2023-02-14T16:59:17.411Z,4.50
2023-02-14T17:01:44.656Z,4.50
2023-02-14T17:04:11.092Z,4.50
2023-02-14T17:06:39.289Z,4.40
2023-02-14T17:09:09.258Z,4.30
2023-02-14T17:11:40.051Z,4.30
2023-02-14T17:14:08.388Z,4.30
2023-02-14T17:16:35.053Z,4.20
2023-02-14T17:19:01.915Z,4.20
2023-02-14T17:21:30.287Z,4.20
2023-02-14T17:23:58.173Z,4.20
2023-02-14T17:26:25.472Z,4.20
2023-02-14T17:28:51.951Z,4.20
2023-02-14T17:31:19.897Z,4.20
2023-02-14T17:33:47.942Z,4.20
2023-02-14T17:36:15.681Z,4.10
2023-02-14T17:38:45.319Z,4.10
2023-02-14T17:41:22.629Z,4.10
2023-02-14T17:43:49.878Z,4.00
2023-02-14T17:46:18.400Z,4.00
2023-02-14T17:48:46.430Z,3.90
2023-02-14T17:51:14.670Z,3.90
2023-02-14T17:53:41.962Z,3.90
2023-02-14T17:56:23.076Z,3.80
2023-02-14T17:58:50.823Z,3.70
2023-02-14T18:01:23.409Z,3.60
2023-02-14T18:03:52.012Z,3.50
2023-02-14T18:06:19.312Z,3.50
2023-02-14T18:08:50.531Z,3.30
2023-02-14T18:11:19.504Z,3.30
2023-02-14T18:13:48.333Z,3.20
2023-02-14T18:16:17.561Z,3.10
2023-02-14T18:18:44.787Z,3.10
2023-02-14T18:21:14.146Z,3.10
2023-02-14T18:23:43.518Z,3.00
2023-02-14T18:26:11.857Z,3.00
2023-02-14T18:28:39.999Z,2.90
2023-02-14T18:31:13.604Z,2.80
2023-02-14T18:33:40.686Z,2.70
2023-02-14T18:36:11.611Z,2.60
2023-02-14T18:38:40.204Z,2.60
2023-02-14T18:41:08.801Z,2.50
2023-02-14T18:43:36.400Z,2.40
2023-02-14T18:46:09.267Z,2.30
2023-02-14T18:48:35.770Z,2.20
2023-02-14T18:51:15.193Z,2.10
2023-02-14T18:53:43.528Z,2.10
2023-02-14T18:56:15.548Z,2.20
2023-02-14T18:58:46.908Z,2.10
2023-02-14T19:01:18.570Z,2.20
2023-02-14T19:03:45.778Z,2.20
2023-02-14T19:06:12.506Z,2.20
2023-02-14T19:08:40.184Z,2.30
2023-02-14T19:11:11.385Z,2.30
2023-02-14T19:13:42.116Z,2.30
2023-02-14T19:16:15.408Z,2.30
2023-02-14T19:18:44.700Z,2.30
2023-02-14T19:21:20.491Z,2.30
2023-02-14T19:23:48.388Z,2.30
2023-02-14T19:26:22.090Z,2.20
2023-02-14T19:28:50.491Z,2.20
2023-02-14T19:31:18.421Z,2.10
2023-02-14T19:33:47.156Z,2.20
2023-02-14T19:36:16.101Z,2.10
2023-02-14T19:38:45.808Z,2.10
2023-02-14T19:41:17.112Z,2.00
2023-02-14T19:43:45.454Z,2.00
2023-02-14T19:46:14.132Z,1.80
2023-02-14T19:48:41.474Z,3.70
2023-02-14T19:51:27.194Z,1.60
2023-02-14T19:53:55.720Z,1.30
2023-02-14T19:56:26.165Z,1.30
2023-02-14T19:58:53.721Z,1.30
2023-02-14T20:01:30.657Z,1.20
2023-02-14T20:03:57.556Z,1.10
2023-02-14T20:06:25.611Z,1.00
2023-02-14T20:08:54.713Z,0.90
2023-02-14T20:11:39.368Z,0.90
2023-02-14T20:14:07.155Z,0.90
2023-02-14T20:16:36.054Z,0.80
2023-02-14T20:19:11.435Z,0.50
2023-02-14T20:21:40.143Z,0.40
2023-02-14T20:24:08.809Z,0.30
2023-02-14T20:26:36.732Z,0.30
2023-02-14T20:29:04.152Z,0.20
2023-02-14T20:31:32.868Z,0.10
2023-02-14T20:33:59.505Z,0.00
2023-02-14T20:36:28.105Z,-0.10
2023-02-14T20:38:59.933Z,0.20
2023-02-14T20:41:28.757Z,-0.20
2023-02-14T20:43:56.161Z,2.20
2023-02-14T20:46:23.463Z,-0.30
2023-02-14T20:48:50.401Z,1.60
2023-02-14T20:51:19.900Z,-0.40
2023-02-14T20:53:48.210Z,-0.40
2023-02-14T20:56:15.386Z,-0.50
2023-02-14T20:58:42.747Z,-0.40
2023-02-14T21:01:22.935Z,-0.40
2023-02-14T21:03:50.428Z,-0.50
2023-02-14T21:06:17.457Z,-0.40
2023-02-14T21:08:44.937Z,-0.50
2023-02-14T21:11:12.728Z,-0.60
2023-02-14T21:13:39.358Z,-0.60
2023-02-14T21:16:08.164Z,-0.60
2023-02-14T21:18:35.421Z,-0.60
2023-02-14T21:21:36.385Z,-0.70
2023-02-14T21:24:08.624Z,-0.80
2023-02-14T21:26:35.447Z,-0.70
2023-02-14T21:29:02.060Z,-0.40
2023-02-14T21:31:28.678Z,-0.70
2023-02-14T21:33:56.804Z,-0.70
2023-02-14T21:36:25.976Z,-0.80
2023-02-14T21:38:54.688Z,-0.80
2023-02-14T21:41:22.614Z,-0.80
2023-02-14T21:43:51.788Z,-0.70
2023-02-14T21:46:19.941Z,-0.70
2023-02-14T21:49:05.562Z,-0.70
2023-02-14T21:51:32.849Z,-0.80
2023-02-14T21:53:59.324Z,-0.90
2023-02-14T21:56:25.752Z,-1.10
2023-02-14T21:58:52.906Z,-1.10
2023-02-14T22:01:27.899Z,-1.30
2023-02-14T22:03:54.647Z,-1.30
2023-02-14T22:06:20.905Z,-1.20
2023-02-14T22:08:54.886Z,-1.20
2023-02-14T22:11:21.425Z,-1.30
2023-02-14T22:13:48.063Z,-1.30
2023-02-14T22:16:17.938Z,-1.20
2023-02-14T22:18:48.389Z,-1.30
2023-02-14T22:21:17.276Z,-1.20
2023-02-14T22:23:44.698Z,-1.10
2023-02-14T22:26:15.780Z,-1.20
2023-02-14T22:28:44.007Z,-1.10
2023-02-14T22:31:10.913Z,-1.10
2023-02-14T22:33:38.048Z,-1.10
2023-02-14T22:36:05.671Z,-1.10
2023-02-14T22:38:32.977Z,-1.10
2023-02-14T22:41:14.323Z,-1.10
2023-02-14T22:43:40.966Z,-0.90
2023-02-14T22:46:28.445Z,-1.20
2023-02-14T22:48:56.792Z,-1.10
2023-02-14T22:51:34.989Z,-1.00
2023-02-14T22:54:04.284Z,-1.10
2023-02-14T22:56:39.297Z,-1.10
2023-02-14T22:59:15.778Z,0.10
2023-02-14T23:01:44.299Z,-1.20
2023-02-14T23:06:38.446Z,-1.20
2023-02-14T23:09:07.073Z,-1.20
2023-02-14T23:11:35.293Z,-1.20
2023-02-14T23:14:20.477Z,-1.20
2023-02-14T23:17:06.466Z,-1.20
2023-02-14T23:19:53.561Z,-1.20
2023-02-14T23:22:25.341Z,-1.00
2023-02-14T23:24:54.597Z,-1.10
2023-02-14T23:27:23.631Z,-1.20
2023-02-14T23:29:51.442Z,-0.70
2023-02-14T23:32:18.950Z,-1.60
2023-02-14T23:34:45.604Z,-1.40
2023-02-14T23:37:12.952Z,-1.40
2023-02-14T23:39:39.291Z,-1.50
2023-02-14T23:42:06.697Z,-1.30
2023-02-14T23:47:00.793Z,-3.00
2023-02-14T23:49:27.242Z,-1.80
2023-02-14T23:51:55.316Z,-1.70
2023-02-14T23:54:21.935Z,-1.60
2023-02-14T23:56:49.807Z,-1.60
